Glenlivet, United Kingdom
Current Conditions -  °F | °C
As of 3:50 PM on Saturday 25 Oct 2014 (Local Time) from EGQK Reporting Station
Clear Clear  
Wind Chill: 55°   Ceiling: Unl
Heat Index: 55°   Visibility: 6mi
Dew Point: 41°   Wind: 32mph
Humidity: 58%   Direction: 220°SW
Pressure: 29.44"   Gusts: 48mph
Location:  57.35°N, 3.35°W
Report Text: EGQK 251450Z AUTO 22028G42KT 9999 NCD 13/05 Q0997
Loading
Personal Weather Stations






























Interactive Weather Map
Tropical Storm Tracking
New forecast layout! Learn more

10-Day Weather Forecast

Advertisements
Track Severe Weather on mobile